Station info - map view · info · telemetry · weather · raw · status · beacons · messages · bulletins · browse · moving · my account
Callsign, ship name or locator: Clear       
It is possible to search using wildcards (*?) after a prefix. Example: OH*
APRS station IU4HOD-7 - show graphs
Map loading...
Mic-E message: In service
Location: 44°31.51' N 10°51.98' E - locator JN54KM36XA - show map - static map
2.3 miles East bearing 109° from Fiorano Modenese, Provincia di Modena, Emilia-Romagna, Italy [?]
4.4 miles Southeast bearing 114° from Sassuolo, Provincia di Modena, Emilia-Romagna, Italy
23.4 miles West bearing 275° from Bologna, Provincia di Bologna, Emilia-Romagna, Italy
55.7 miles North bearing 340° from Florence, Provincia di Firenze, Tuscany, Italy
Last position: 2019-12-08 11:34:09 EST (10h6m ago)
2019-12-08 17:34:09 CET local time at Fiorano Modenese, Italy [?]
Altitude: 420 ft
Course: 110°
Speed: 0 MPH
Device: Yaesu: FT1D (ht)
Last path: IU4HOD-7>T4SQ51 via WIDE1-1,WIDE2-1,qAR,IQ4SC (good)
Positions stored: 3079
Packet rate: 39 seconds between packets on average during 1901 seconds.
Other SSIDs: IU4HOD IU4HOD-1 IU4HOD-9
Stations near current position of IU4HOD-7 - show more
callsign distance last heard - EST      callsign distance last heard - EST
IZ4FTD-90.5 miles 125°2019-12-08 14:49:41 IU4DTL-D3.8 miles 273°2019-12-07 14:05:15
IZ4FXC-H06.0 miles 287°2019-12-08 20:00:26 IR4UBC6.0 miles 287°2019-12-08 21:36:59
CW43526.0 miles 280°2019-12-08 21:37:05 IZ4FTD-136.5 miles 294°2019-12-08 21:32:19
IZ4FXC-76.5 miles 189°2019-12-08 02:43:10 IK4POG6.6 miles 262°2019-11-29 18:02:11
IU4MUA-97.1 miles 314°2019-12-08 15:39:41 IR4UAQ7.5 miles 280°2019-12-08 21:37:04
IR4UCI-117.6 miles 92°2019-12-08 21:37:05 IW1GIW-107.6 miles 1°2019-12-08 21:06:47
IZ4FTD-57.9 miles 290°2019-11-24 07:31:39 IR4UBX7.9 miles 200°2019-12-08 21:12:47
iu4cwy8.0 miles 210°2019-12-02 03:09:34 IU4AQE-H08.2 miles 289°2019-12-08 08:00:12
IU4MUB-98.5 miles 74°2019-12-06 02:49:09 IU4LGT-98.6 miles 253°2019-11-23 12:28:34
IU4LAU-78.6 miles 13°2019-12-08 04:31:08 IU4LAU-99.0 miles 73°2019-12-08 12:53:07
Stations which heard IU4HOD-7 directly on radio –
callsign pkts first heard - EST last heard longest (tx => rx) longest at - EST
IK2XDE-6 2 2019-12-07 10:07:37 2019-12-08 09:38:09 JN45LO > JN45MQ 9.2 miles 32° 2019-12-07 10:07:37
IR2UBX-11 119 2019-12-07 09:43:36 2019-12-08 09:58:49 JN45PI > JN45MQ 27.0 miles 332° 2019-12-07 09:43:36
IR4AN 20 2019-12-07 08:48:35 2019-12-08 11:23:31 JN54BV > JN54FK 34.4 miles 153° 2019-12-08 10:43:20
IK3XTM 1 2019-12-08 11:21:56 2019-12-08 11:21:56 JN54JN > JN55LP 73.8 miles 5° 2019-12-08 11:21:56
IR2BZ 13 2019-12-07 09:19:11 2019-12-08 10:39:03 JN54AV > JN45XO 47.4 miles 355° 2019-12-08 10:39:03
IK2EXH 15 2019-12-07 09:44:39 2019-12-08 10:09:03 JN45QH > JN45OH 9.5 miles 254° 2019-12-08 10:09:03
IW2HUZ-11 6 2019-12-07 10:02:56 2019-12-08 09:38:41 JN45MM > JN45MU 22.9 miles 1° 2019-12-07 10:02:56
IQ2ER 2 2019-12-07 09:56:20 2019-12-08 09:44:30 JN45MK > JN45OT 25.7 miles 19° 2019-12-07 09:56:20
IR1DM 1 2019-12-08 08:57:44 2019-12-08 08:57:44 JN45LO > JN44JS 60.4 miles 188° 2019-12-08 08:57:44
IU4DTL 7 2019-12-08 11:04:57 2019-12-08 11:11:59 JN54KP > JN54JP 4.0 miles 268° 2019-12-08 11:11:59
IK2CHZ-12 8 2019-12-07 09:34:33 2019-12-08 10:14:22 JN45PI > JN45UI 18.4 miles 87° 2019-12-07 09:43:37
IW5CBL-15 19 2019-12-07 08:58:38 2019-12-08 10:54:41 JN54FS > JN44WL 37.1 miles 234° 2019-12-08 10:54:41
IR2UFW 17 2019-12-07 09:49:22 2019-12-08 09:57:39 JN45MO > JN45LI 16.0 miles 181° 2019-12-08 09:42:20
IQ4SC 42 2019-12-07 08:47:00 2019-12-08 11:34:09 JN54FS > JN54IO 16.4 miles 142° 2019-12-08 10:55:12
IR2UEZ 63 2019-12-07 10:00:07 2019-12-08 09:52:44 JN45ML > JN45JP 17.7 miles 309° 2019-12-08 09:52:44
IQ3VO 21 2019-12-07 08:53:51 2019-12-08 11:27:12 JN45SF > JN55MQ 81.2 miles 66° 2019-12-07 09:34:01
IR3AO 1 2019-12-08 11:21:55 2019-12-08 11:21:55 JN54JN > JN56WK 138.6 miles 21° 2019-12-08 11:21:55
IR2UGD 11 2019-12-07 09:40:53 2019-12-08 10:09:35 JN45QH > JN45PJ 6.3 miles 319° 2019-12-08 10:09:35
IU2ITE 4 2019-12-07 09:55:49 2019-12-08 09:58:16 JN45NJ > JN45MK 2.9 miles 302° 2019-12-08 09:58:16
IR2DQ 3 2019-12-08 10:25:03 2019-12-08 10:27:47 JN45UB > JN55AD 15.3 miles 68° 2019-12-08 10:25:03
IR2AL 59 2019-12-07 09:38:13 2019-12-08 10:11:13 JN45RG > JN45OL 17.4 miles 321° 2019-12-07 09:38:13
IZ2DDY 37 2019-12-07 09:27:12 2019-12-08 10:25:06 JN45UB > JN45SH 18.7 miles 327° 2019-12-08 10:25:06
IR2BP 12 2019-12-07 08:59:41 2019-12-08 11:21:55 JN54JN > JN55DN 72.8 miles 339° 2019-12-08 11:21:55
IW1GIW-10 2 2019-12-08 11:14:12 2019-12-08 11:15:22 JN54KO > JN54KP 1.4 miles 12° 2019-12-08 11:15:22
IR2UGI 49 2019-12-07 10:11:48 2019-12-08 09:56:36 JN45LP > JN45KK 12.6 miles 198° 2019-12-08 09:19:26

Only position packets which were originated by the station are shown here. The range statistics show some extra long hops, because some digipeaters do not correctly add themselves to the digipeater path. Please check the raw packets.
About this site
This page shows real-time information collected from the Automatic Position Reporting System Internet network (APRS-IS). APRS is used by amateur (ham) radio operators to transmit real-time position information, weather data, telemetry and messages over the radio. A vehicle equipped with a GPS receiver, a VHF transmitter or HF transceiver and a small computer device called a tracker transmits it's location, speed and course in a small data packet, which is then received by a nearby iGate receiving site which forwards the packet on the Internet. Systems connected to the Internet can send information on the APRS-IS without a radio transmitter, or collect and display information transmitted anywhere in the world.
User guide · FAQ · Blog · Discussion group · Linking to aprs.fi · AIS sites · Service status · Database statistics · Advertising on aprs.fi · Technical details · API · Change log · Planned changes · Credits and thanks · Terms Of Service · iPhone/iPad APRS